createdAt,value
2023-02-06T00:02:54.125Z,12.07
2023-02-06T00:07:55.872Z,12.09
2023-02-06T00:12:57.500Z,12.08
2023-02-06T00:17:59.132Z,12.08
2023-02-06T00:23:00.784Z,12.09
2023-02-06T00:28:02.459Z,12.07
2023-02-06T00:33:04.327Z,12.06
2023-02-06T00:38:05.948Z,12.07
2023-02-06T00:43:07.802Z,12.07
2023-02-06T00:48:09.442Z,12.06
2023-02-06T00:53:11.091Z,12.34
2023-02-06T00:58:12.688Z,12.57
2023-02-06T01:03:16.032Z,12.59
2023-02-06T01:08:17.736Z,12.60
2023-02-06T01:13:19.363Z,12.59
2023-02-06T01:18:20.940Z,12.60
2023-02-06T01:23:22.573Z,12.59
2023-02-06T01:28:24.145Z,12.60
2023-02-06T01:33:25.801Z,12.57
2023-02-06T01:38:27.476Z,12.61
2023-02-06T01:43:30.898Z,12.57
2023-02-06T01:48:43.072Z,12.55
2023-02-06T01:53:50.707Z,12.59
2023-02-06T01:58:53.829Z,12.57
2023-02-06T02:03:57.096Z,12.58
2023-02-06T02:08:58.993Z,12.58
2023-02-06T02:14:02.381Z,12.58
2023-02-06T02:19:28.810Z,12.57
2023-02-06T02:24:52.126Z,12.57
2023-02-06T02:30:14.928Z,12.51
2023-02-06T02:35:36.329Z,12.53
2023-02-06T02:41:03.927Z,12.55
2023-02-06T02:46:19.871Z,12.58
2023-02-06T02:51:21.463Z,12.57
2023-02-06T02:56:24.179Z,12.57
2023-02-06T03:01:46.367Z,12.55
2023-02-06T03:07:03.724Z,12.56
2023-02-06T03:12:32.565Z,12.60
2023-02-06T03:17:39.410Z,12.55
2023-02-06T03:22:41.302Z,12.58
2023-02-06T03:27:43.081Z,12.59
2023-02-06T03:32:47.025Z,12.54
2023-02-06T03:37:48.726Z,12.57
2023-02-06T03:42:55.496Z,12.12
2023-02-06T03:48:09.014Z,12.04
2023-02-06T03:53:10.703Z,12.02
2023-02-06T03:58:13.002Z,12.03
2023-02-06T04:03:14.502Z,12.01
2023-02-06T04:08:16.219Z,12.01
2023-02-06T04:13:17.912Z,11.99
2023-02-06T04:18:19.467Z,12.00
2023-02-06T04:23:21.039Z,11.98
2023-02-06T04:28:22.964Z,12.03
2023-02-06T04:33:24.512Z,12.01
2023-02-06T04:38:26.456Z,12.00
2023-02-06T04:43:28.152Z,12.00
2023-02-06T04:48:29.782Z,11.97
2023-02-06T04:53:31.349Z,11.99
2023-02-06T04:58:33.054Z,12.00
2023-02-06T05:03:34.720Z,11.98
2023-02-06T05:08:37.741Z,12.01
2023-02-06T05:13:39.410Z,11.98
2023-02-06T05:18:41.390Z,11.97
2023-02-06T05:23:43.113Z,12.00
2023-02-06T05:28:45.424Z,12.01
2023-02-06T05:33:48.992Z,11.98
2023-02-06T05:38:52.199Z,11.96
2023-02-06T05:43:53.976Z,11.97
2023-02-06T05:49:01.294Z,11.95
2023-02-06T05:54:04.072Z,11.97
2023-02-06T05:59:05.756Z,11.95
2023-02-06T06:04:07.638Z,11.96
2023-02-06T06:09:09.191Z,11.96
2023-02-06T06:14:11.529Z,11.95
2023-02-06T06:19:15.794Z,11.93
2023-02-06T06:24:20.461Z,11.95
2023-02-06T06:29:23.474Z,11.94
2023-02-06T06:34:25.236Z,11.90
2023-02-06T06:39:27.055Z,11.95
2023-02-06T06:44:28.699Z,11.93
2023-02-06T06:49:32.461Z,11.90
2023-02-06T06:54:35.400Z,11.92
2023-02-06T06:59:38.593Z,11.91
2023-02-06T07:04:40.311Z,11.93
2023-02-06T07:09:43.349Z,11.92
2023-02-06T07:14:45.083Z,11.90
2023-02-06T07:19:46.811Z,11.91
2023-02-06T07:24:48.579Z,11.92
2023-02-06T07:29:50.622Z,11.91
2023-02-06T07:34:54.804Z,11.88
2023-02-06T07:39:57.889Z,11.87
2023-02-06T07:45:02.579Z,11.90
2023-02-06T07:50:04.456Z,11.88
2023-02-06T07:55:06.436Z,11.89
2023-02-06T08:00:20.452Z,11.90
2023-02-06T08:05:22.527Z,11.90
2023-02-06T08:10:30.334Z,11.90
2023-02-06T08:15:42.924Z,11.93
2023-02-06T08:20:53.810Z,11.95
2023-02-06T08:26:10.010Z,11.96
2023-02-06T08:31:20.834Z,12.00
2023-02-06T08:36:31.263Z,12.00
2023-02-06T08:42:09.730Z,12.01
2023-02-06T08:47:33.296Z,12.06
2023-02-06T09:03:57.442Z,12.00
2023-02-06T09:25:54.531Z,11.95
2023-02-06T09:36:30.344Z,11.93
2023-02-06T09:41:45.334Z,11.95
2023-02-06T09:46:58.585Z,11.98
2023-02-06T09:52:31.591Z,12.00
2023-02-06T09:57:46.629Z,12.03
2023-02-06T10:03:10.101Z,12.10
2023-02-06T10:08:18.396Z,12.16
2023-02-06T10:13:33.701Z,12.14
2023-02-06T10:19:00.466Z,12.18
2023-02-06T10:24:45.371Z,12.20
2023-02-06T10:29:52.906Z,12.21
2023-02-06T10:35:16.422Z,12.20
2023-02-06T10:40:44.968Z,12.19
2023-02-06T10:46:15.734Z,12.20
2023-02-06T11:03:39.801Z,12.20
2023-02-06T11:19:33.901Z,12.26
2023-02-06T11:25:20.723Z,12.30
2023-02-06T11:30:35.681Z,12.30
2023-02-06T11:35:48.405Z,12.30
2023-02-06T11:41:05.177Z,12.28
2023-02-06T11:46:25.890Z,12.30
2023-02-06T11:51:49.742Z,12.29
2023-02-06T11:57:04.672Z,12.27
2023-02-06T12:02:32.362Z,12.28
2023-02-06T12:08:06.526Z,12.27
2023-02-06T12:13:20.315Z,12.30
2023-02-06T12:18:47.811Z,12.31
2023-02-06T12:24:02.407Z,12.28
2023-02-06T12:29:14.590Z,12.30
2023-02-06T12:34:26.147Z,12.30
2023-02-06T12:39:33.188Z,12.29
2023-02-06T12:44:58.414Z,12.28
2023-02-06T12:50:01.243Z,12.29
2023-02-06T12:55:15.106Z,12.27
2023-02-06T13:00:44.256Z,12.29
2023-02-06T13:05:49.807Z,12.29
2023-02-06T13:11:00.758Z,12.25
2023-02-06T13:16:05.287Z,12.26
2023-02-06T13:21:36.226Z,12.26
2023-02-06T13:26:48.085Z,12.29
2023-02-06T13:32:11.850Z,12.24
2023-02-06T13:37:41.512Z,12.24
2023-02-06T13:42:48.563Z,12.28
2023-02-06T13:48:01.337Z,12.26
2023-02-06T13:53:58.423Z,12.24
2023-02-06T13:59:07.573Z,12.29
2023-02-06T14:04:10.818Z,12.28
2023-02-06T14:09:29.217Z,12.27
2023-02-06T14:14:58.516Z,12.26
2023-02-06T14:20:44.369Z,12.24
2023-02-06T14:25:51.828Z,12.27
2023-02-06T14:30:59.422Z,12.26
2023-02-06T14:36:03.959Z,12.27
2023-02-06T14:41:07.589Z,12.25
2023-02-06T14:46:17.656Z,12.28
2023-02-06T14:51:30.687Z,12.27
2023-02-06T14:56:36.960Z,12.27
2023-02-06T15:01:38.657Z,12.27
2023-02-06T15:06:46.061Z,12.27
2023-02-06T15:11:52.904Z,12.24
2023-02-06T15:16:54.899Z,12.25
2023-02-06T15:22:00.917Z,12.27
2023-02-06T15:27:04.997Z,12.22
2023-02-06T15:32:08.655Z,12.26
2023-02-06T15:37:23.754Z,12.28
2023-02-06T15:42:50.969Z,12.25
2023-02-06T15:47:55.300Z,12.26
2023-02-06T15:53:02.057Z,12.27
2023-02-06T15:58:04.645Z,12.26
2023-02-06T16:03:20.852Z,12.26
2023-02-06T16:08:37.779Z,12.24
2023-02-06T16:13:39.419Z,12.24
2023-02-06T16:18:41.099Z,12.28
2023-02-06T16:23:47.215Z,12.25
2023-02-06T16:28:58.573Z,12.24
2023-02-06T16:34:00.283Z,12.27
2023-02-06T16:39:05.012Z,12.24
2023-02-06T16:44:10.319Z,12.26
2023-02-06T16:49:13.992Z,12.26
2023-02-06T16:54:20.335Z,12.24
2023-02-06T16:59:23.518Z,12.23
2023-02-06T17:04:26.571Z,12.24
2023-02-06T17:09:33.861Z,12.25
2023-02-06T17:14:43.507Z,12.19
2023-02-06T17:19:57.800Z,12.26
2023-02-06T17:25:08.431Z,12.23
2023-02-06T17:30:23.589Z,12.26
2023-02-06T17:35:41.131Z,12.23
2023-02-06T17:40:58.890Z,12.23
2023-02-06T17:46:05.981Z,12.42
2023-02-06T17:51:24.310Z,12.23
2023-02-06T17:56:33.277Z,12.22
2023-02-06T18:01:38.830Z,12.25
2023-02-06T18:06:54.518Z,12.20
2023-02-06T18:11:58.881Z,12.21
2023-02-06T18:17:34.368Z,12.24
2023-02-06T18:22:26.749Z,12.20
2023-02-06T18:27:38.340Z,12.21
2023-02-06T18:32:41.325Z,12.19
2023-02-06T18:37:49.480Z,12.22
2023-02-06T18:43:01.767Z,12.17
2023-02-06T18:48:18.645Z,12.17
2023-02-06T18:53:22.592Z,12.18
2023-02-06T18:58:27.329Z,12.16
2023-02-06T19:03:36.661Z,12.18
2023-02-06T19:08:44.569Z,12.17
2023-02-06T19:13:49.959Z,12.16
2023-02-06T19:18:58.382Z,12.16
2023-02-06T19:24:08.499Z,12.14
2023-02-06T19:29:13.627Z,12.16
2023-02-06T19:34:16.859Z,12.15
2023-02-06T19:39:24.051Z,12.15
2023-02-06T19:50:13.238Z,12.12
2023-02-06T19:55:21.946Z,12.14
2023-02-06T20:00:32.919Z,12.13
2023-02-06T20:05:46.789Z,12.11
2023-02-06T20:10:52.887Z,12.11
2023-02-06T20:16:07.476Z,12.11
2023-02-06T20:21:42.098Z,12.10
2023-02-06T20:26:49.961Z,12.09
2023-02-06T20:32:12.321Z,12.08
2023-02-06T20:37:31.815Z,12.05
2023-02-06T20:42:54.744Z,12.09
2023-02-06T20:54:24.792Z,12.07
2023-02-06T20:59:40.570Z,12.04
2023-02-06T21:04:58.198Z,12.04
2023-02-06T21:15:32.992Z,12.03
2023-02-06T21:21:10.218Z,12.02
2023-02-06T21:26:17.898Z,12.02
2023-02-06T21:32:14.454Z,12.00
2023-02-06T21:37:29.691Z,11.99
2023-02-06T21:42:43.804Z,11.97
2023-02-06T21:47:56.354Z,11.99
2023-02-06T21:58:24.253Z,11.99
2023-02-06T22:03:45.089Z,11.96
2023-02-06T22:09:04.049Z,11.96
2023-02-06T22:14:20.428Z,11.95
2023-02-06T22:19:50.344Z,11.95
2023-02-06T22:25:02.206Z,11.96
2023-02-06T22:30:25.981Z,11.93
2023-02-06T22:35:36.582Z,11.93
2023-02-06T22:41:24.413Z,11.94
2023-02-06T22:47:08.515Z,11.90
2023-02-06T22:52:25.783Z,11.92
2023-02-06T22:57:59.108Z,11.93
2023-02-06T23:10:20.717Z,11.87
2023-02-06T23:15:34.099Z,11.91
2023-02-06T23:27:34.581Z,11.82
2023-02-06T23:33:07.669Z,11.88
2023-02-06T23:38:24.911Z,11.89
2023-02-06T23:49:06.415Z,11.83
2023-02-06T23:54:29.192Z,11.82
2023-02-06T23:59:49.594Z,11.84
